createdAt,value
2019-06-15T00:01:09.105Z,97814.29
2019-06-15T00:03:37.225Z,97823.95
2019-06-15T00:06:06.805Z,97801.16
2019-06-15T00:08:34.858Z,97801.16
2019-06-15T00:11:03.873Z,97781.90
2019-06-15T00:13:33.230Z,97781.90
2019-06-15T00:16:03.422Z,97757.85
2019-06-15T00:18:33.298Z,97757.85
2019-06-15T00:21:00.969Z,97766.23
2019-06-15T00:23:30.457Z,97766.23
2019-06-15T00:25:59.540Z,97727.52
2019-06-15T00:28:27.043Z,97727.52
2019-06-15T00:30:55.741Z,97723.23
2019-06-15T00:33:23.464Z,97738.59
2019-06-15T00:35:51.805Z,97741.59
2019-06-15T00:38:20.470Z,97716.91
2019-06-15T00:40:48.663Z,97718.27
2019-06-15T00:43:18.326Z,97706.80
2019-06-15T00:45:47.008Z,97706.80
2019-06-15T00:48:14.721Z,97720.41
2019-06-15T00:50:42.343Z,97714.02
2019-06-15T00:53:10.023Z,97707.94
2019-06-15T00:55:38.882Z,97704.13
2019-06-15T00:58:06.263Z,97711.45
2019-06-15T01:00:35.205Z,97707.42
2019-06-15T01:03:04.129Z,97707.42
2019-06-15T01:05:33.267Z,97703.97
2019-06-15T01:08:00.947Z,97705.85
2019-06-15T01:10:30.797Z,97705.85
2019-06-15T01:12:59.993Z,97702.94
2019-06-15T01:15:29.336Z,97675.06
2019-06-15T01:17:58.555Z,97675.06
2019-06-15T01:20:28.521Z,97687.68
2019-06-15T01:22:57.144Z,97687.68
2019-06-15T01:25:26.403Z,97689.12
2019-06-15T01:27:55.203Z,97690.59
2019-06-15T01:30:23.782Z,97668.09
2019-06-15T01:32:53.489Z,97679.17
2019-06-15T01:35:22.035Z,97668.41
2019-06-15T01:37:51.130Z,97688.63
2019-06-15T01:40:19.498Z,97688.63
2019-06-15T01:42:48.973Z,97689.12
2019-06-15T01:45:25.164Z,97690.61
2019-06-15T01:47:54.716Z,97687.31
2019-06-15T01:50:23.958Z,97687.31
2019-06-15T01:52:52.156Z,97676.80
2019-06-15T01:55:21.423Z,97681.63
2019-06-15T01:57:50.606Z,97693.80
2019-06-15T02:00:21.357Z,97688.34
2019-06-15T02:05:31.924Z,97702.70
2019-06-15T02:08:01.204Z,97716.31
2019-06-15T02:10:31.402Z,97711.56
2019-06-15T02:13:00.370Z,97710.05
2019-06-15T02:15:29.288Z,97710.05
2019-06-15T02:17:57.826Z,97714.57
2019-06-15T02:20:27.355Z,97700.13
2019-06-15T02:22:56.810Z,97700.13
2019-06-15T02:25:35.213Z,97720.26
2019-06-15T02:27:58.220Z,97701.23
2019-06-15T02:30:29.985Z,97701.23
2019-06-15T02:33:00.771Z,97707.78
2019-06-15T02:35:29.902Z,97707.78
2019-06-15T02:37:59.033Z,97722.80
2019-06-15T02:40:28.240Z,97726.26
2019-06-15T02:42:57.137Z,97729.03
2019-06-15T02:45:26.076Z,97729.03
2019-06-15T02:47:54.885Z,97738.66
2019-06-15T02:50:23.280Z,97753.69
2019-06-15T02:52:51.667Z,97767.03
2019-06-15T02:55:21.042Z,97767.03
2019-06-15T02:57:50.295Z,97789.55
2019-06-15T03:00:39.311Z,97788.52
2019-06-15T03:03:08.366Z,97801.45
2019-06-15T03:05:38.379Z,97821.36
2019-06-15T03:08:07.760Z,97821.36
2019-06-15T03:10:36.473Z,97815.67
2019-06-15T03:13:06.590Z,97815.67
2019-06-15T03:15:35.561Z,97846.67
2019-06-15T03:18:04.523Z,97857.64
2019-06-15T03:20:34.489Z,97857.64
2019-06-15T03:23:04.699Z,97879.41
2019-06-15T03:25:32.957Z,97782.62
2019-06-15T03:28:03.768Z,97889.34
2019-06-15T03:30:33.893Z,97882.46
2019-06-15T03:33:03.309Z,97896.14
2019-06-15T03:35:33.206Z,97896.14
2019-06-15T03:38:03.254Z,97907.73
2019-06-15T03:40:32.689Z,97914.39
2019-06-15T03:43:02.147Z,97901.25
2019-06-15T03:45:31.436Z,97910.39
2019-06-15T03:48:00.914Z,97931.12
2019-06-15T03:50:31.122Z,97955.03
2019-06-15T03:53:01.070Z,97931.09
2019-06-15T03:55:29.702Z,97931.09
2019-06-15T03:57:58.012Z,97948.58
2019-06-15T04:00:43.065Z,97952.83
2019-06-15T04:03:13.228Z,97956.02
2019-06-15T04:05:43.027Z,97978.53
2019-06-15T04:08:12.707Z,98013.25
2019-06-15T04:10:42.411Z,98013.25
2019-06-15T04:13:12.055Z,98028.02
2019-06-15T04:15:41.458Z,98049.80
2019-06-15T04:18:10.615Z,98059.39
2019-06-15T04:20:39.623Z,98043.28
2019-06-15T04:23:08.306Z,98028.56
2019-06-15T04:25:36.713Z,98031.73
2019-06-15T04:28:06.305Z,98031.73
2019-06-15T04:30:34.937Z,98045.32
2019-06-15T04:33:03.750Z,98055.83
2019-06-15T04:35:33.737Z,98055.83
2019-06-15T04:38:03.271Z,98067.45
2019-06-15T04:40:33.161Z,98080.80
2019-06-15T04:43:02.516Z,98080.80
2019-06-15T04:45:32.485Z,98082.09
2019-06-15T04:48:02.504Z,98082.09
2019-06-15T04:50:31.186Z,98090.63
2019-06-15T04:52:59.572Z,98074.77
2019-06-15T04:55:28.420Z,98085.30
2019-06-15T04:57:56.813Z,98085.30
2019-06-15T05:00:26.023Z,98105.86
2019-06-15T05:02:54.972Z,98106.36
2019-06-15T05:05:25.745Z,98115.22
2019-06-15T05:07:54.689Z,98113.56
2019-06-15T05:10:23.836Z,98113.56
2019-06-15T05:12:51.845Z,98130.16
2019-06-15T05:15:19.998Z,98135.06
2019-06-15T05:17:50.230Z,98143.35
2019-06-15T05:20:19.006Z,98143.35
2019-06-15T05:22:47.434Z,98145.07
2019-06-15T05:25:15.635Z,98145.07
2019-06-15T05:27:44.991Z,98158.86
2019-06-15T05:30:14.196Z,98157.45
2019-06-15T05:32:43.565Z,98154.34
2019-06-15T05:35:12.421Z,98184.50
2019-06-15T05:37:42.447Z,98184.50
2019-06-15T05:40:12.191Z,98175.64
2019-06-15T05:42:41.726Z,98175.64
2019-06-15T05:45:10.948Z,98168.62
2019-06-15T05:47:39.846Z,98167.58
2019-06-15T05:50:09.455Z,98160.23
2019-06-15T05:52:39.131Z,98160.23
2019-06-15T05:55:08.419Z,98176.91
2019-06-15T05:57:36.438Z,98072.80
2019-06-15T06:00:05.587Z,98072.80
2019-06-15T06:02:34.181Z,98185.70
2019-06-15T06:05:02.407Z,98195.84
2019-06-15T06:07:30.248Z,98195.61
2019-06-15T06:09:59.240Z,98196.07
2019-06-15T06:12:28.379Z,98192.91
2019-06-15T06:14:56.864Z,98198.06
2019-06-15T06:17:25.236Z,98198.06
2019-06-15T06:19:55.007Z,98199.64
2019-06-15T06:22:23.990Z,98202.56
2019-06-15T06:24:52.757Z,98202.56
2019-06-15T06:27:35.789Z,98202.83
2019-06-15T06:29:53.740Z,98216.97
2019-06-15T06:32:22.799Z,98216.97
2019-06-15T06:34:53.867Z,98201.30
2019-06-15T06:37:21.564Z,98201.30
2019-06-15T06:39:50.769Z,98217.70
2019-06-15T06:42:19.335Z,98227.60
2019-06-15T06:44:48.397Z,98225.88
2019-06-15T06:47:17.589Z,98225.88
2019-06-15T06:49:47.537Z,98222.16
2019-06-15T06:52:16.146Z,98234.14
2019-06-15T06:54:44.914Z,98242.51
2019-06-15T06:57:14.903Z,98238.59
2019-06-15T06:59:43.807Z,98264.13
2019-06-15T07:02:13.794Z,98261.45
2019-06-15T07:04:42.961Z,98261.45
2019-06-15T07:07:13.048Z,98266.82
2019-06-15T07:09:43.416Z,98266.67
2019-06-15T07:12:13.200Z,98268.89
2019-06-15T07:14:41.896Z,98268.89
2019-06-15T07:17:11.599Z,98274.51
2019-06-15T07:19:41.669Z,98275.24
2019-06-15T07:22:11.323Z,98270.36
2019-06-15T07:24:41.126Z,98294.53
2019-06-15T07:27:11.553Z,98281.77
2019-06-15T07:29:41.662Z,98302.48
2019-06-15T07:32:10.799Z,98301.37
2019-06-15T07:34:41.315Z,98287.41
2019-06-15T07:37:11.609Z,98309.06
2019-06-15T07:39:40.831Z,98292.58
2019-06-15T07:42:10.088Z,98297.17
2019-06-15T07:44:39.078Z,98313.59
2019-06-15T07:47:08.639Z,98317.63
2019-06-15T07:49:53.247Z,98315.13
2019-06-15T07:52:22.021Z,98320.55
2019-06-15T07:54:51.170Z,98308.33
2019-06-15T07:57:19.566Z,98308.33
2019-06-15T07:59:48.806Z,98315.06
2019-06-15T08:02:17.950Z,98329.78
2019-06-15T08:04:47.979Z,98329.78
2019-06-15T08:07:16.716Z,98321.36
2019-06-15T08:09:47.048Z,98327.09
2019-06-15T08:12:16.021Z,98335.70
2019-06-15T08:14:46.371Z,98341.34
2019-06-15T08:17:15.683Z,98334.26
2019-06-15T08:19:45.126Z,98334.26
2019-06-15T08:22:14.366Z,98347.19
2019-06-15T08:24:43.642Z,98350.68
2019-06-15T08:27:13.081Z,98352.83
2019-06-15T08:29:41.751Z,98360.90
2019-06-15T08:32:10.724Z,98365.91
2019-06-15T08:34:39.577Z,98366.16
2019-06-15T08:37:08.926Z,98366.16
2019-06-15T08:39:38.775Z,98371.28
2019-06-15T08:42:07.936Z,98371.28
2019-06-15T08:44:37.706Z,98380.11
2019-06-15T08:47:07.828Z,98370.39
2019-06-15T08:49:38.032Z,98374.97
2019-06-15T08:52:08.136Z,98390.27
2019-06-15T08:54:37.335Z,98384.51
2019-06-15T08:57:06.131Z,98389.66
2019-06-15T08:59:36.332Z,98393.92
2019-06-15T09:02:05.353Z,98394.16
2019-06-15T09:04:33.907Z,98397.66
2019-06-15T09:07:02.521Z,98391.47
2019-06-15T09:09:30.608Z,98391.47
2019-06-15T09:11:59.296Z,98388.16
2019-06-15T09:14:28.620Z,98397.34
2019-06-15T09:16:57.230Z,98393.85
2019-06-15T09:19:26.951Z,98393.85
2019-06-15T09:21:56.917Z,98389.75
2019-06-15T09:24:26.308Z,98392.70
2019-06-15T09:26:55.907Z,98382.66
2019-06-15T09:29:25.536Z,98393.48
2019-06-15T09:31:54.924Z,98395.63
2019-06-15T09:34:24.613Z,98389.13
2019-06-15T09:36:53.667Z,98389.13
2019-06-15T09:39:22.424Z,98399.20
2019-06-15T09:41:50.980Z,98399.20
2019-06-15T09:44:21.051Z,98390.83
2019-06-15T09:46:49.019Z,98390.83
2019-06-15T09:49:17.712Z,98406.13
2019-06-15T09:51:46.482Z,98406.13
2019-06-15T09:54:16.300Z,98405.28
2019-06-15T09:56:44.786Z,98405.21
2019-06-15T09:59:25.596Z,98412.74
2019-06-15T10:01:45.445Z,98412.48
2019-06-15T10:04:13.768Z,98412.48
2019-06-15T10:06:42.736Z,98413.59
2019-06-15T10:09:12.294Z,98402.70
2019-06-15T10:11:41.834Z,98400.89
2019-06-15T10:14:11.375Z,98407.85
2019-06-15T10:16:40.531Z,98407.85
2019-06-15T10:19:10.175Z,98430.47
2019-06-15T10:21:38.917Z,98429.59
2019-06-15T10:24:08.573Z,98429.59
2019-06-15T10:26:37.782Z,98427.16
2019-06-15T10:29:06.719Z,98427.09
2019-06-15T10:31:35.139Z,98427.09
2019-06-15T10:34:04.396Z,98448.86
2019-06-15T10:36:34.122Z,98448.86
2019-06-15T10:39:02.724Z,98437.55
2019-06-15T10:41:32.637Z,98438.66
2019-06-15T10:44:00.645Z,98442.62
2019-06-15T10:46:29.924Z,98449.36
2019-06-15T10:48:58.851Z,98448.75
2019-06-15T10:51:29.200Z,98434.79
2019-06-15T10:53:59.908Z,98426.13
2019-06-15T10:56:30.115Z,98436.94
2019-06-15T10:58:59.525Z,98439.02
2019-06-15T11:01:28.230Z,98457.36
2019-06-15T11:03:57.832Z,98457.36
2019-06-15T11:06:26.962Z,98447.78
2019-06-15T11:08:56.763Z,98429.59
2019-06-15T11:11:25.502Z,98449.78
2019-06-15T11:13:55.087Z,98449.78
2019-06-15T11:16:23.969Z,98465.94
2019-06-15T11:18:52.387Z,98465.05
2019-06-15T11:21:21.356Z,98473.70
2019-06-15T11:23:50.405Z,98473.70
2019-06-15T11:26:20.179Z,98471.78
2019-06-15T11:28:49.040Z,98467.21
2019-06-15T11:31:17.878Z,98476.09
2019-06-15T11:33:46.546Z,98472.09
2019-06-15T11:36:16.005Z,98472.09
2019-06-15T11:38:45.049Z,98472.09
2019-06-15T11:41:14.386Z,98469.70
2019-06-15T11:43:43.161Z,98476.20
2019-06-15T11:46:12.256Z,98478.35
2019-06-15T11:48:42.305Z,98479.50
2019-06-15T11:51:12.326Z,98479.50
2019-06-15T11:53:41.100Z,98341.09
2019-06-15T11:56:09.359Z,98341.09
2019-06-15T11:58:38.326Z,98476.20
2019-06-15T12:01:07.145Z,98482.39
2019-06-15T12:03:36.527Z,98479.94
2019-06-15T12:06:04.877Z,98482.94
2019-06-15T12:08:33.699Z,98465.31
2019-06-15T12:11:03.679Z,98486.59
2019-06-15T12:13:32.285Z,98486.59
2019-06-15T12:16:02.344Z,98487.47
2019-06-15T12:18:31.588Z,98483.67
2019-06-15T12:21:01.034Z,98479.13
2019-06-15T12:23:31.316Z,98479.13
2019-06-15T12:26:00.781Z,98479.13
2019-06-15T12:28:30.258Z,98473.28
2019-06-15T12:30:59.203Z,98482.94
2019-06-15T12:33:28.186Z,98481.35
2019-06-15T12:35:57.285Z,98483.17
2019-06-15T12:39:43.067Z,98484.78
2019-06-15T12:42:13.299Z,98467.53
2019-06-15T12:44:43.395Z,98467.53
2019-06-15T12:47:11.514Z,98482.63
2019-06-15T12:49:40.843Z,98483.44
2019-06-15T12:52:10.244Z,98476.70
2019-06-15T12:54:40.304Z,98485.02
2019-06-15T12:57:09.684Z,98485.75
2019-06-15T12:59:39.071Z,98485.75
2019-06-15T13:02:08.663Z,98489.78
2019-06-15T13:04:37.665Z,98469.62
2019-06-15T13:07:06.379Z,98469.62
2019-06-15T13:09:36.130Z,98475.28
2019-06-15T13:12:05.543Z,98487.47
2019-06-15T13:14:34.292Z,98487.47
2019-06-15T13:17:04.194Z,98489.36
2019-06-15T13:19:33.745Z,98483.13
2019-06-15T13:22:06.326Z,98488.20
2019-06-15T13:24:34.751Z,98480.05
2019-06-15T13:27:03.683Z,98480.05
2019-06-15T13:29:33.462Z,98490.02
2019-06-15T13:32:02.892Z,98492.41
2019-06-15T13:34:33.969Z,98492.41
2019-06-15T13:37:02.965Z,98482.55
2019-06-15T13:39:31.851Z,98436.72
2019-06-15T13:42:00.462Z,98436.72
2019-06-15T13:44:29.392Z,98487.02
2019-06-15T13:46:58.636Z,98487.02
2019-06-15T13:49:27.388Z,98488.62
2019-06-15T13:51:56.271Z,98490.59
2019-06-15T13:54:25.486Z,98493.82
2019-06-15T13:56:54.280Z,98485.13
2019-06-15T13:59:23.622Z,98470.28
2019-06-15T14:01:52.840Z,98470.28
2019-06-15T14:04:22.044Z,98488.06
2019-06-15T14:06:50.297Z,98493.75
2019-06-15T14:12:01.288Z,98489.17
2019-06-15T14:14:30.826Z,98488.06
2019-06-15T14:17:00.372Z,98488.06
2019-06-15T14:22:11.704Z,98486.17
2019-06-15T14:24:42.197Z,98492.59
2019-06-15T14:27:11.343Z,98492.59
2019-06-15T14:29:40.314Z,98487.22
2019-06-15T14:32:10.140Z,98487.22
2019-06-15T14:34:39.522Z,98493.38
2019-06-15T14:37:08.719Z,98485.30
2019-06-15T14:39:38.587Z,98485.30
2019-06-15T14:42:07.592Z,98484.75
2019-06-15T14:44:36.798Z,98487.98
2019-06-15T14:47:05.783Z,98487.45
2019-06-15T14:49:34.853Z,98471.31
2019-06-15T14:52:04.545Z,98479.60
2019-06-15T14:54:34.160Z,98479.60
2019-06-15T14:57:06.800Z,98489.03
2019-06-15T14:59:52.026Z,98488.56
2019-06-15T15:02:13.847Z,98487.95
2019-06-15T15:04:38.699Z,98478.98
2019-06-15T15:07:07.444Z,98465.56
2019-06-15T15:09:36.456Z,98465.56
2019-06-15T15:12:06.480Z,98473.28
2019-06-15T15:14:36.582Z,98454.41
2019-06-15T15:17:06.566Z,98454.41
2019-06-15T15:19:36.149Z,98469.48
2019-06-15T15:22:05.672Z,98461.09
2019-06-15T15:24:34.965Z,98458.71
2019-06-15T15:27:04.790Z,98458.71
2019-06-15T15:29:33.473Z,98456.33
2019-06-15T15:32:02.659Z,98456.33
2019-06-15T15:34:32.188Z,98455.21
2019-06-15T15:37:02.001Z,98457.36
2019-06-15T15:39:32.367Z,98457.36
2019-06-15T15:42:01.460Z,98457.12
2019-06-15T15:44:31.697Z,98454.91
2019-06-15T15:47:01.017Z,98456.17
2019-06-15T15:49:30.107Z,98456.17
2019-06-15T15:51:59.713Z,98453.86
2019-06-15T15:54:29.184Z,98447.55
2019-06-15T15:56:58.111Z,98445.41
2019-06-15T15:59:27.636Z,98455.87
2019-06-15T16:01:56.697Z,98455.87
2019-06-15T16:04:26.327Z,98431.91
2019-06-15T16:06:56.233Z,98445.36
2019-06-15T16:09:27.315Z,98445.36
2019-06-15T16:11:57.770Z,98427.60
2019-06-15T16:14:26.954Z,98445.67
2019-06-15T16:16:56.629Z,98449.14
2019-06-15T16:19:26.476Z,98452.09
2019-06-15T16:21:56.068Z,98445.67
2019-06-15T16:24:27.244Z,98426.78
2019-06-15T16:26:56.847Z,98426.78
2019-06-15T16:29:25.867Z,98438.63
2019-06-15T16:31:56.458Z,98437.02
2019-06-15T16:34:26.981Z,98439.17
2019-06-15T16:36:57.051Z,98441.32
2019-06-15T16:39:26.915Z,98444.17
2019-06-15T16:41:56.142Z,98438.13
2019-06-15T16:44:25.210Z,98414.41
2019-06-15T16:46:53.793Z,98428.40
2019-06-15T16:49:22.814Z,98415.20
2019-06-15T16:51:51.823Z,98428.32
2019-06-15T16:54:20.649Z,98426.13
2019-06-15T16:56:50.851Z,98425.24
2019-06-15T16:59:19.992Z,98409.05
2019-06-15T17:01:49.191Z,98417.86
2019-06-15T17:04:17.826Z,98421.93
2019-06-15T17:06:46.241Z,98426.70
2019-06-15T17:09:16.839Z,98426.70
2019-06-15T17:11:47.165Z,98437.47
2019-06-15T17:14:17.121Z,98433.38
2019-06-15T17:16:46.984Z,98424.39
2019-06-15T17:19:16.828Z,98439.16
2019-06-15T17:21:47.384Z,98439.16
2019-06-15T17:24:17.146Z,98438.84
2019-06-15T17:26:46.912Z,98435.30
2019-06-15T17:29:16.318Z,98432.92
2019-06-15T17:31:46.725Z,98432.92
2019-06-15T17:34:16.666Z,98433.72
2019-06-15T17:36:47.211Z,98437.45
2019-06-15T17:39:17.336Z,98430.09
2019-06-15T17:41:47.262Z,98430.09
2019-06-15T17:44:17.520Z,98437.71
2019-06-15T17:46:47.617Z,98434.21
2019-06-15T17:49:17.839Z,98437.53
2019-06-15T17:51:47.304Z,98414.69
2019-06-15T17:54:17.064Z,98414.69
2019-06-15T17:56:47.126Z,98442.45
2019-06-15T17:59:17.035Z,98433.56
2019-06-15T18:01:47.586Z,98431.67
2019-06-15T18:04:17.009Z,98422.64
2019-06-15T18:06:47.066Z,98401.84
2019-06-15T18:09:17.116Z,98401.84
2019-06-15T18:11:46.626Z,98411.06
2019-06-15T18:14:17.733Z,98409.52
2019-06-15T18:16:47.575Z,98409.52
2019-06-15T18:19:17.299Z,98413.11
2019-06-15T18:21:47.331Z,98412.30
2019-06-15T18:24:16.240Z,98412.61
2019-06-15T18:26:47.408Z,98416.65
2019-06-15T18:29:16.930Z,98411.34
2019-06-15T18:31:46.314Z,98412.27
2019-06-15T18:34:16.906Z,98412.27
2019-06-15T18:36:45.872Z,98393.93
2019-06-15T18:39:16.544Z,98409.66
2019-06-15T18:41:46.240Z,98409.66
2019-06-15T18:44:16.071Z,98416.47
2019-06-15T18:46:46.534Z,98416.47
2019-06-15T18:49:16.694Z,98423.55
2019-06-15T18:51:47.614Z,98415.48
2019-06-15T18:54:17.433Z,98422.20
2019-06-15T18:56:46.157Z,98422.20
2019-06-15T18:59:16.874Z,98406.14
2019-06-15T19:01:47.044Z,98406.14
2019-06-15T19:04:24.617Z,98420.88
2019-06-15T19:06:46.822Z,98417.67
2019-06-15T19:09:16.399Z,98395.33
2019-06-15T19:11:45.438Z,98392.69
2019-06-15T19:14:16.565Z,98414.02
2019-06-15T19:16:47.170Z,98414.02
2019-06-15T19:19:17.589Z,98412.45
2019-06-15T19:21:46.631Z,98412.45
2019-06-15T19:24:16.729Z,98398.95
2019-06-15T19:26:46.009Z,98398.95
2019-06-15T19:29:17.178Z,98409.33
2019-06-15T19:31:46.917Z,98409.64
2019-06-15T19:34:16.791Z,98409.64
2019-06-15T19:36:46.892Z,98407.80
2019-06-15T19:39:16.538Z,98414.79
2019-06-15T19:41:46.310Z,98411.37
2019-06-15T19:44:16.352Z,98411.37
2019-06-15T19:46:47.463Z,98422.75
2019-06-15T19:49:17.148Z,98422.58
2019-06-15T19:51:47.274Z,98428.02
2019-06-15T19:54:16.792Z,98428.02
2019-06-15T19:56:46.679Z,98406.98
2019-06-15T19:59:17.063Z,98434.27
2019-06-15T20:01:46.985Z,98434.27
2019-06-15T20:04:16.978Z,98433.19
2019-06-15T20:06:46.987Z,98433.19
2019-06-15T20:09:16.255Z,98449.11
2019-06-15T20:11:46.852Z,98455.68
2019-06-15T20:14:15.639Z,98455.68
2019-06-15T20:16:46.967Z,98463.02
2019-06-15T20:19:17.444Z,98461.91
2019-06-15T20:21:47.681Z,98461.91
2019-06-15T20:24:19.225Z,98460.75
2019-06-15T20:26:47.734Z,98451.38
2019-06-15T20:29:17.572Z,98455.41
2019-06-15T20:31:47.875Z,98460.09
2019-06-15T20:34:17.740Z,98463.00
2019-06-15T20:36:47.100Z,98463.00
2019-06-15T20:39:16.480Z,98514.25
2019-06-15T20:41:47.213Z,98508.06
2019-06-15T20:44:16.680Z,98511.05
2019-06-15T20:46:46.451Z,98511.05
2019-06-15T20:49:15.128Z,98513.58
2019-06-15T20:51:45.746Z,98515.42
2019-06-15T20:54:16.806Z,98515.42
2019-06-15T21:01:01.742Z,98541.28
2019-06-15T21:03:30.678Z,98552.65
2019-06-15T21:05:59.857Z,98567.75
2019-06-15T21:08:30.113Z,98574.41
2019-06-15T21:10:59.164Z,98574.41
2019-06-15T21:13:29.346Z,98583.22
2019-06-15T21:15:58.321Z,98579.02
2019-06-15T21:18:27.842Z,98572.45
2019-06-15T21:20:56.972Z,98581.59
2019-06-15T21:23:26.893Z,98581.59
2019-06-15T21:25:57.318Z,98598.63
2019-06-15T21:28:27.281Z,98605.30
2019-06-15T21:30:56.885Z,98623.70
2019-06-15T21:33:26.571Z,98623.70
2019-06-15T21:35:56.663Z,98625.05
2019-06-15T21:38:26.512Z,98625.05
2019-06-15T21:40:57.235Z,98627.73
2019-06-15T21:43:26.892Z,98630.97
2019-06-15T21:45:57.180Z,98630.97
2019-06-15T21:48:26.804Z,98636.11
2019-06-15T21:50:59.608Z,98637.19
2019-06-15T21:53:28.731Z,98640.69
2019-06-15T21:55:57.767Z,98641.61
2019-06-15T21:58:27.138Z,98661.37
2019-06-15T22:01:33.623Z,98653.48
2019-06-15T22:04:02.267Z,98653.48
2019-06-15T22:06:31.630Z,98678.59
2019-06-15T22:08:59.990Z,98671.56
2019-06-15T22:11:28.041Z,98671.56
2019-06-15T22:13:57.284Z,98691.50
2019-06-15T22:16:27.555Z,98691.50
2019-06-15T22:18:56.018Z,98695.59
2019-06-15T22:21:27.875Z,98716.02
2019-06-15T22:23:56.165Z,98716.02
2019-06-15T22:26:26.671Z,98719.83
2019-06-15T22:28:56.984Z,98724.67
2019-06-15T22:31:26.327Z,98711.16
2019-06-15T22:33:56.634Z,98732.00
2019-06-15T22:36:28.495Z,98732.00
2019-06-15T22:38:57.146Z,98734.17
2019-06-15T22:41:25.180Z,98737.94
2019-06-15T22:43:56.630Z,98737.94
2019-06-15T22:46:26.137Z,98732.10
2019-06-15T22:48:56.377Z,98731.86
2019-06-15T22:51:27.502Z,98735.72
2019-06-15T22:53:56.581Z,98735.72
2019-06-15T22:56:26.410Z,98748.11
2019-06-15T22:58:57.071Z,98748.11
2019-06-15T23:01:26.337Z,98758.30
2019-06-15T23:03:57.121Z,98758.30
2019-06-15T23:06:37.517Z,98754.03
2019-06-15T23:08:58.004Z,98744.37
2019-06-15T23:11:28.430Z,98729.55
2019-06-15T23:13:57.749Z,98740.12
2019-06-15T23:16:27.265Z,98740.12
2019-06-15T23:18:57.286Z,98730.01
2019-06-15T23:21:26.770Z,98730.01
2019-06-15T23:23:56.451Z,98730.01
2019-06-15T23:29:08.920Z,98731.44
2019-06-15T23:31:38.807Z,98731.44
2019-06-15T23:34:07.814Z,98736.81
2019-06-15T23:36:53.121Z,98726.80
2019-06-15T23:39:10.744Z,98726.80
2019-06-15T23:41:40.469Z,98722.55
2019-06-15T23:44:09.842Z,98734.65
2019-06-15T23:46:39.029Z,98734.65
2019-06-15T23:49:07.849Z,98752.46
2019-06-15T23:51:37.168Z,98754.88
2019-06-15T23:54:07.570Z,98751.75
2019-06-15T23:56:37.420Z,98751.75
2019-06-15T23:59:07.223Z,98758.66
